createdAt,value
2016-05-07T00:00:42.952Z,52.89
2016-05-07T00:01:43.142Z,52.51
2016-05-07T00:02:43.176Z,52.7
2016-05-07T00:03:43.242Z,52.7
2016-05-07T00:04:43.259Z,52.7
2016-05-07T00:05:43.294Z,52.42
2016-05-07T00:06:43.343Z,52.89
2016-05-07T00:07:43.409Z,52.51
2016-05-07T00:08:43.427Z,52.99
2016-05-07T00:09:43.461Z,52.7
2016-05-07T00:10:43.541Z,52.7
2016-05-07T00:11:43.545Z,52.8
2016-05-07T00:12:43.422Z,53.47
2016-05-07T00:13:43.471Z,53.37
2016-05-07T00:14:43.522Z,53.08
2016-05-07T00:15:43.711Z,53.18
2016-05-07T00:16:43.760Z,53.37
2016-05-07T00:17:43.794Z,53.37
2016-05-07T00:18:43.844Z,53.47
2016-05-07T00:19:43.738Z,53.85
2016-05-07T00:20:43.756Z,53.18
2016-05-07T00:21:43.962Z,53.85
2016-05-07T00:22:43.855Z,53.85
2016-05-07T00:23:44.045Z,54.11
2016-05-07T00:24:44.095Z,54.04
2016-05-07T00:25:44.160Z,53.82
2016-05-07T00:26:44.179Z,54.14
2016-05-07T00:27:44.212Z,54.11
2016-05-07T00:28:44.246Z,54.3
2016-05-07T00:29:44.295Z,54.11
2016-05-07T00:30:44.330Z,53.92
2016-05-07T00:31:44.379Z,54.49
2016-05-07T00:32:44.429Z,54.43
2016-05-07T00:33:44.462Z,54.59
2016-05-07T00:34:44.497Z,54.68
2016-05-07T00:35:44.546Z,54.68
2016-05-07T00:36:44.595Z,54.59
2016-05-07T00:37:44.631Z,55.16
2016-05-07T00:38:44.679Z,54.97
2016-05-07T00:39:44.714Z,55.07
2016-05-07T00:40:44.747Z,54.88
2016-05-07T00:41:44.766Z,54.68
2016-05-07T00:42:44.830Z,55.07
2016-05-07T00:43:44.911Z,55.45
2016-05-07T00:44:44.758Z,55.54
2016-05-07T00:45:44.964Z,55.35
2016-05-07T00:46:44.997Z,55.64
2016-05-07T00:47:45.047Z,54.88
2016-05-07T00:48:45.081Z,55.26
2016-05-07T00:49:45.130Z,55.74
2016-05-07T00:50:45.196Z,55.16
2016-05-07T00:51:45.199Z,55.54
2016-05-07T00:52:45.248Z,55.45
2016-05-07T00:53:45.298Z,55.45
2016-05-07T00:54:45.379Z,55.64
2016-05-07T00:55:45.366Z,55.93
2016-05-07T00:56:45.463Z,55.83
2016-05-07T00:57:45.292Z,55.93
2016-05-07T00:58:45.499Z,56.12
2016-05-07T00:59:45.548Z,56.21
2016-05-07T01:00:45.582Z,56.69
2016-05-07T01:01:45.662Z,56.69
2016-05-07T01:02:45.493Z,57.17
2016-05-07T01:03:45.700Z,57.17
2016-05-07T01:04:45.765Z,57.26
2016-05-07T01:05:45.815Z,56.88
2016-05-07T01:06:45.848Z,57.24
2016-05-07T01:07:45.867Z,57.53
2016-05-07T01:08:45.931Z,57.65
2016-05-07T01:09:45.981Z,57.62
2016-05-07T01:10:45.828Z,57.81
2016-05-07T01:11:46.784Z,58
2016-05-07T01:12:46.067Z,57.53
2016-05-07T01:13:46.117Z,57.43
2016-05-07T01:14:46.151Z,57.62
2016-05-07T01:15:46.060Z,57.71
2016-05-07T01:16:46.250Z,58.19
2016-05-07T01:17:46.269Z,58.1
2016-05-07T01:18:46.318Z,57.9
2016-05-07T01:19:46.352Z,57.9
2016-05-07T01:20:46.401Z,58.58
2016-05-07T01:21:46.452Z,58.19
2016-05-07T01:22:46.485Z,58.48
2016-05-07T01:23:46.519Z,58.48
2016-05-07T01:24:46.568Z,58.1
2016-05-07T01:25:46.447Z,58.48
2016-05-07T01:26:46.495Z,58.38
2016-05-07T01:27:46.686Z,58.67
2016-05-07T01:28:46.721Z,58.38
2016-05-07T01:29:46.770Z,58.67
2016-05-07T01:30:46.818Z,58.58
2016-05-07T01:31:46.854Z,58.76
2016-05-07T01:32:46.731Z,58.38
2016-05-07T01:33:46.968Z,58.19
2016-05-07T01:34:46.987Z,58.38
2016-05-07T01:35:47.004Z,58.48
2016-05-07T01:36:46.898Z,58.76
2016-05-07T01:37:47.103Z,59.15
2016-05-07T01:38:47.137Z,58.64
2016-05-07T01:39:47.172Z,58.93
2016-05-07T01:40:47.253Z,59.05
2016-05-07T01:41:47.310Z,58.93
2016-05-07T01:42:47.427Z,58.73
2016-05-07T01:43:47.336Z,58.93
2016-05-07T01:44:47.413Z,59.02
2016-05-07T01:45:47.415Z,58.93
2016-05-07T01:46:47.465Z,58.64
2016-05-07T01:47:47.499Z,58.54
2016-05-07T01:48:47.564Z,58.73
2016-05-07T01:49:47.597Z,59.41
2016-05-07T01:50:47.632Z,59.02
2016-05-07T01:51:47.665Z,58.93
2016-05-07T01:52:47.542Z,58.83
2016-05-07T01:53:47.593Z,59.02
2016-05-07T01:54:47.798Z,59.22
2016-05-07T01:55:47.692Z,59.22
2016-05-07T01:56:47.867Z,59.22
2016-05-07T01:57:47.916Z,59.22
2016-05-07T01:58:47.981Z,59.31
2016-05-07T01:59:48.000Z,59.31
2016-05-07T02:00:48.033Z,59.69
2016-05-07T02:01:48.067Z,59.69
2016-05-07T02:02:48.133Z,59.88
2016-05-07T02:03:48.151Z,59.41
2016-05-07T02:04:48.200Z,59.88
2016-05-07T02:05:48.235Z,59.69
2016-05-07T02:06:48.316Z,60.07
2016-05-07T02:07:48.318Z,60.07
2016-05-07T02:08:48.352Z,59.98
2016-05-07T02:09:48.245Z,60.17
2016-05-07T02:10:48.451Z,60.07
2016-05-07T02:11:48.469Z,60.07
2016-05-07T02:12:48.535Z,60.07
2016-05-07T02:13:48.412Z,59.88
2016-05-07T02:14:48.618Z,60.07
2016-05-07T02:15:48.651Z,59.76
2016-05-07T02:16:48.687Z,60.14
2016-05-07T02:17:48.720Z,59.98
2016-05-07T02:18:48.754Z,60.36
2016-05-07T02:19:48.803Z,60.36
2016-05-07T02:20:48.837Z,60.55
2016-05-07T02:21:48.886Z,60.17
2016-05-07T02:22:48.937Z,60.36
2016-05-07T02:23:48.970Z,60.24
2016-05-07T02:24:49.007Z,60.33
2016-05-07T02:25:49.057Z,60.42
2016-05-07T02:26:49.090Z,60.64
2016-05-07T02:27:49.203Z,60.52
2016-05-07T02:28:49.159Z,60.24
2016-05-07T02:29:49.209Z,60.81
2016-05-07T02:30:49.258Z,60.71
2016-05-07T02:31:49.322Z,61.47
2016-05-07T02:32:49.325Z,61.19
2016-05-07T02:33:49.376Z,61.66
2016-05-07T02:34:49.425Z,61.19
2016-05-07T02:35:49.459Z,61.38
2016-05-07T02:36:49.492Z,61.76
2016-05-07T02:37:49.573Z,61.95
2016-05-07T02:38:49.420Z,62.05
2016-05-07T02:39:49.626Z,62.34
2016-05-07T02:40:49.660Z,61.86
2016-05-07T02:41:49.725Z,62.81
2016-05-07T02:42:49.743Z,62.71
2016-05-07T02:43:49.777Z,62.81
2016-05-07T02:44:49.811Z,63.67
2016-05-07T02:45:49.861Z,62.88
2016-05-07T02:46:49.738Z,63.07
2016-05-07T02:47:49.944Z,63.26
2016-05-07T02:48:49.978Z,63.35
2016-05-07T02:49:50.027Z,62.88
2016-05-07T02:50:50.062Z,63.73
2016-05-07T02:51:50.112Z,64.12
2016-05-07T02:52:50.176Z,63.83
2016-05-07T02:53:50.179Z,64.31
2016-05-07T02:54:50.213Z,64.21
2016-05-07T02:55:50.278Z,64.5
2016-05-07T02:56:50.140Z,64.78
2016-05-07T02:57:50.346Z,64.5
2016-05-07T02:58:50.395Z,64.5
2016-05-07T02:59:50.429Z,64.85
2016-05-07T03:00:50.464Z,65.04
2016-05-07T03:01:50.497Z,65.33
2016-05-07T03:02:50.578Z,65.04
2016-05-07T03:03:50.612Z,65.13
2016-05-07T03:04:50.615Z,65.52
2016-05-07T03:05:50.664Z,65.42
2016-05-07T03:06:50.714Z,65.42
2016-05-07T03:07:50.747Z,65.52
2016-05-07T03:08:50.782Z,66.18
2016-05-07T03:09:50.831Z,65.99
2016-05-07T03:10:50.866Z,66.18
2016-05-07T03:11:50.899Z,65.61
2016-05-07T03:12:50.793Z,65.99
2016-05-07T03:13:50.982Z,65.99
2016-05-07T03:14:51.033Z,66.47
2016-05-07T03:15:51.066Z,66.28
2016-05-07T03:16:51.100Z,65.89
2016-05-07T03:17:51.134Z,66.47
2016-05-07T03:18:51.184Z,66.47
2016-05-07T03:19:51.076Z,66.28
2016-05-07T03:20:51.158Z,66.47
2016-05-07T03:21:51.317Z,67.04
2016-05-07T03:22:51.351Z,66.94
2016-05-07T03:23:51.384Z,66.66
2016-05-07T03:24:51.451Z,66.56
2016-05-07T03:25:51.468Z,66.53
2016-05-07T03:26:51.331Z,66.72
2016-05-07T03:27:51.536Z,66.94
2016-05-07T03:28:51.586Z,67
2016-05-07T03:29:51.619Z,66.82
2016-05-07T03:30:51.654Z,66.82
2016-05-07T03:31:51.703Z,66.82
2016-05-07T03:32:51.753Z,66.91
2016-05-07T03:33:51.770Z,66.82
2016-05-07T03:34:51.821Z,66.91
2016-05-07T03:35:51.855Z,67
2016-05-07T03:36:51.748Z,67.29
2016-05-07T03:37:51.938Z,67.58
2016-05-07T03:38:51.972Z,67.48
2016-05-07T03:39:52.052Z,67.29
2016-05-07T03:40:52.072Z,67.48
2016-05-07T03:41:52.105Z,67.48
2016-05-07T03:42:52.138Z,67.58
2016-05-07T03:43:52.032Z,67.39
2016-05-07T03:44:52.207Z,67.39
2016-05-07T03:45:52.257Z,67.2
2016-05-07T03:46:52.306Z,67.48
2016-05-07T03:47:52.340Z,67.39
2016-05-07T03:48:52.374Z,67.2
2016-05-07T03:49:52.455Z,67.39
2016-05-07T03:50:52.473Z,67.48
2016-05-07T03:51:52.491Z,67.29
2016-05-07T03:52:52.525Z,67.48
2016-05-07T03:53:52.574Z,67.39
2016-05-07T03:54:52.609Z,67.39
2016-05-07T03:55:52.486Z,67.2
2016-05-07T03:56:52.693Z,67.39
2016-05-07T03:57:52.570Z,67.48
2016-05-07T03:58:52.760Z,67.48
2016-05-07T03:59:52.684Z,67.29
2016-05-07T04:00:52.843Z,67.39
2016-05-07T04:01:52.909Z,67.29
2016-05-07T04:02:52.942Z,67.58
2016-05-07T04:03:52.976Z,67.58
2016-05-07T04:04:53.058Z,67.1
2016-05-07T04:05:53.045Z,67.29
2016-05-07T04:06:52.922Z,67.48
2016-05-07T04:07:53.112Z,67.58
2016-05-07T04:08:53.194Z,67.77
2016-05-07T04:09:53.196Z,67.48
2016-05-07T04:10:53.245Z,67.77
2016-05-07T04:11:53.280Z,67.86
2016-05-07T04:12:53.313Z,67.29
2016-05-07T04:13:53.363Z,67.29
2016-05-07T04:14:53.241Z,67.77
2016-05-07T04:15:53.446Z,67.39
2016-05-07T04:16:53.480Z,67.58
2016-05-07T04:17:53.514Z,67.77
2016-05-07T04:18:53.564Z,67.68
2016-05-07T04:19:53.629Z,67.1
2016-05-07T04:20:53.647Z,67.29
2016-05-07T04:21:53.681Z,67.29
2016-05-07T04:22:53.559Z,67.2
2016-05-07T04:23:53.780Z,67.39
2016-05-07T04:24:53.799Z,67.1
2016-05-07T04:25:53.832Z,67.1
2016-05-07T04:26:53.882Z,67.86
2016-05-07T04:27:53.916Z,67.29
2016-05-07T04:28:53.950Z,67.48
2016-05-07T04:29:53.984Z,67.39
2016-05-07T04:30:54.065Z,67.39
2016-05-07T04:31:54.067Z,67.2
2016-05-07T04:32:54.117Z,67.48
2016-05-07T04:33:54.198Z,67.39
2016-05-07T04:34:54.200Z,67.29
2016-05-07T04:35:54.235Z,67.2
2016-05-07T04:36:54.269Z,67.39
2016-05-07T04:37:54.364Z,67.1
2016-05-07T04:38:54.353Z,67.33
2016-05-07T04:39:54.402Z,67.42
2016-05-07T04:40:54.419Z,66.94
2016-05-07T04:41:54.500Z,66.94
2016-05-07T04:42:54.504Z,66.85
2016-05-07T04:43:54.553Z,67.52
2016-05-07T04:44:54.586Z,66.56
2016-05-07T04:45:54.652Z,67.04
2016-05-07T04:46:54.671Z,66.94
2016-05-07T04:47:54.705Z,66.66
2016-05-07T04:48:54.785Z,67.14
2016-05-07T04:49:54.788Z,66.85
2016-05-07T04:50:54.682Z,66.85
2016-05-07T04:51:54.871Z,67.04
2016-05-07T04:52:54.937Z,66.66
2016-05-07T04:53:54.954Z,66.75
2016-05-07T04:54:54.988Z,66.75
2016-05-07T04:55:55.054Z,66.56
2016-05-07T04:56:54.916Z,66.56
2016-05-07T04:57:55.106Z,67.14
2016-05-07T04:58:55.140Z,66.98
2016-05-07T04:59:55.221Z,66.69
2016-05-07T05:00:55.224Z,66.98
2016-05-07T05:01:55.101Z,66.78
2016-05-07T05:02:55.307Z,66.6
2016-05-07T05:03:55.356Z,67.07
2016-05-07T05:04:55.391Z,66.22
2016-05-07T05:05:55.268Z,66.31
2016-05-07T05:06:55.489Z,66.5
2016-05-07T05:07:55.508Z,65.93
2016-05-07T05:08:55.542Z,65.83
2016-05-07T05:09:55.592Z,66.02
2016-05-07T05:10:55.657Z,66.12
2016-05-07T05:11:55.675Z,65.64
2016-05-07T05:12:55.725Z,65.67
2016-05-07T05:13:55.586Z,65.39
2016-05-07T05:14:55.636Z,65.3
2016-05-07T05:15:55.670Z,64.81
2016-05-07T05:16:55.877Z,65.39
2016-05-07T05:17:55.910Z,64.62
2016-05-07T05:18:55.991Z,64.53
2016-05-07T05:19:55.994Z,64.81
2016-05-07T05:20:56.043Z,64.34
2016-05-07T05:21:56.078Z,64.25
2016-05-07T05:22:56.111Z,64.34
2016-05-07T05:23:56.145Z,63.67
2016-05-07T05:24:56.038Z,63.89
2016-05-07T05:25:56.260Z,63.29
2016-05-07T05:26:56.278Z,62.91
2016-05-07T05:27:56.312Z,62.52
2016-05-07T05:28:56.346Z,62.62
2016-05-07T05:29:56.412Z,62.84
2016-05-07T05:30:56.289Z,62.55
2016-05-07T05:31:56.479Z,62.75
2016-05-07T05:32:56.513Z,63.23
2016-05-07T05:33:56.562Z,61.98
2016-05-07T05:34:56.596Z,62.08
2016-05-07T05:35:56.646Z,62.08
2016-05-07T05:36:56.695Z,62.65
2016-05-07T05:37:56.714Z,62.18
2016-05-07T05:38:56.764Z,62.18
2016-05-07T05:39:56.828Z,61.6
2016-05-07T05:40:56.848Z,61.51
2016-05-07T05:41:57.381Z,60.84
2016-05-07T05:42:56.914Z,61.41
2016-05-07T05:43:56.996Z,61.13
2016-05-07T05:44:57.014Z,61.22
2016-05-07T05:45:57.033Z,60.64
2016-05-07T05:46:57.097Z,60.58
2016-05-07T05:47:57.116Z,60.77
2016-05-07T05:48:57.166Z,60.3
2016-05-07T05:49:57.215Z,60.3
2016-05-07T05:50:57.280Z,60.49
2016-05-07T05:51:57.283Z,60.49
2016-05-07T05:52:57.177Z,60.01
2016-05-07T05:53:57.226Z,60.01
2016-05-07T05:54:57.400Z,60.39
2016-05-07T05:55:57.450Z,60.1
2016-05-07T05:56:57.484Z,59.72
2016-05-07T05:57:57.565Z,59.72
2016-05-07T05:58:57.568Z,59.72
2016-05-07T05:59:57.618Z,59.44
2016-05-07T06:00:57.651Z,59.44
2016-05-07T06:01:57.748Z,59.53
2016-05-07T06:02:57.750Z,59.05
2016-05-07T06:03:57.799Z,58.89
2016-05-07T06:04:57.818Z,58.89
2016-05-07T06:05:57.852Z,58.89
2016-05-07T06:06:57.745Z,59.37
2016-05-07T06:07:57.951Z,58.7
2016-05-07T06:08:58.001Z,58.7
2016-05-07T06:09:58.020Z,58.8
2016-05-07T06:10:58.068Z,58.51
2016-05-07T06:11:58.102Z,58.51
2016-05-07T06:12:58.136Z,58.8
2016-05-07T06:13:58.201Z,58.12
2016-05-07T06:14:58.064Z,58.22
2016-05-07T06:15:58.286Z,57.84
2016-05-07T06:16:58.303Z,58.03
2016-05-07T06:17:58.353Z,58.12
2016-05-07T06:18:58.231Z,57.65
2016-05-07T06:19:58.281Z,58.03
2016-05-07T06:20:58.314Z,58.12
2016-05-07T06:21:58.552Z,57.77
2016-05-07T06:22:58.554Z,57.01
2016-05-07T06:23:59.525Z,57.68
2016-05-07T06:24:58.638Z,57.2
2016-05-07T06:25:58.687Z,57.48
2016-05-07T06:26:58.736Z,56.91
2016-05-07T06:27:58.771Z,56.62
2016-05-07T06:28:58.648Z,57.01
2016-05-07T06:29:58.854Z,56.72
2016-05-07T06:30:58.731Z,56.15
2016-05-07T06:31:58.921Z,56.34
2016-05-07T06:32:58.972Z,56.05
2016-05-07T06:33:59.021Z,55.47
2016-05-07T06:34:59.054Z,54.83
2016-05-07T06:35:59.105Z,52.25
2016-05-07T06:36:59.170Z,52.73
2016-05-07T06:37:59.204Z,52.73
2016-05-07T06:38:59.206Z,52.92
2016-05-07T06:39:59.100Z,52.54
2016-05-07T06:40:59.306Z,52.25
2016-05-07T06:41:59.339Z,52.54
2016-05-07T06:42:59.389Z,51.01
2016-05-07T06:43:59.422Z,50.62
2016-05-07T06:44:59.316Z,50.43
2016-05-07T06:45:59.506Z,49.57
2016-05-07T06:46:59.384Z,48.33
2016-05-07T06:47:59.606Z,48.52
2016-05-07T06:48:59.670Z,49.19
2016-05-07T06:49:59.673Z,48.52
2016-05-07T06:50:59.723Z,48.64
2016-05-07T06:51:59.757Z,48.93
2016-05-07T06:52:59.806Z,48.42
2016-05-07T06:53:59.700Z,48.16
2016-05-07T06:54:59.936Z,48.35
2016-05-07T06:55:59.939Z,47.58
2016-05-07T06:56:59.973Z,47.97
2016-05-07T06:58:00.008Z,48.07
2016-05-07T06:59:00.041Z,47.68
2016-05-07T06:59:59.949Z,47.3
2016-05-07T07:01:00.140Z,46.91
2016-05-07T07:02:00.174Z,47.01
2016-05-07T07:03:00.224Z,47.3
2016-05-07T07:04:00.258Z,47.03
2016-05-07T07:05:00.323Z,47.2
2016-05-07T07:06:00.341Z,47.13
2016-05-07T07:07:00.390Z,47.22
2016-05-07T07:08:00.426Z,47.03
2016-05-07T07:09:00.474Z,47.03
2016-05-07T07:10:00.508Z,47.32
2016-05-07T07:11:00.559Z,46.55
2016-05-07T07:12:00.436Z,46.55
2016-05-07T07:13:00.657Z,46.26
2016-05-07T07:14:00.675Z,45.98
2016-05-07T07:15:00.725Z,45.5
2016-05-07T07:16:00.602Z,45.31
2016-05-07T07:17:00.809Z,45.79
2016-05-07T07:18:00.843Z,45.98
2016-05-07T07:19:00.892Z,45.62
2016-05-07T07:20:00.769Z,45.5
2016-05-07T07:21:00.975Z,44.56
2016-05-07T07:22:01.009Z,45.14
2016-05-07T07:23:01.059Z,45.62
2016-05-07T07:24:01.109Z,45.62
2016-05-07T07:25:01.142Z,45.72
2016-05-07T07:26:01.192Z,45.23
2016-05-07T07:27:01.554Z,44.66
2016-05-07T07:28:01.557Z,44.66
2016-05-07T07:29:01.309Z,44.56
2016-05-07T07:30:01.360Z,44.47
2016-05-07T07:31:01.425Z,43.82
2016-05-07T07:32:01.568Z,43.8
2016-05-07T07:33:01.663Z,43.44
2016-05-07T07:34:01.510Z,43.53
2016-05-07T07:35:01.591Z,43.44
2016-05-07T07:36:01.469Z,43.34
2016-05-07T07:37:01.550Z,43.34
2016-05-07T07:38:01.771Z,43.53
2016-05-07T07:39:01.743Z,43.15
2016-05-07T07:40:01.776Z,42.86
2016-05-07T07:41:01.826Z,42.77
2016-05-07T07:42:01.876Z,42.29
2016-05-07T07:43:01.957Z,42.57
2016-05-07T07:44:01.959Z,42.57
2016-05-07T07:45:02.025Z,42.47
2016-05-07T07:46:02.027Z,43.15
2016-05-07T07:47:02.076Z,42.69
2016-05-07T07:48:02.111Z,43.17
2016-05-07T07:49:02.176Z,42.98
2016-05-07T07:50:02.053Z,42.98
2016-05-07T07:51:02.244Z,43.17
2016-05-07T07:52:02.152Z,42.88
2016-05-07T07:53:02.328Z,42.88
2016-05-07T07:54:02.220Z,42.69
2016-05-07T07:55:02.411Z,42.69
2016-05-07T07:56:02.508Z,41.85
2016-05-07T07:57:02.510Z,42.43
2016-05-07T07:58:03.060Z,42.43
2016-05-07T07:59:02.593Z,42.23
2016-05-07T08:00:02.674Z,42.33
2016-05-07T08:01:02.693Z,42.61
2016-05-07T08:02:02.774Z,42.81
2016-05-07T08:03:02.807Z,42.61
2016-05-07T08:04:02.794Z,42.33
2016-05-07T08:05:02.843Z,42.13
2016-05-07T08:06:02.894Z,41.46
2016-05-07T08:07:02.943Z,41.56
2016-05-07T08:08:02.977Z,41.08
2016-05-07T08:09:03.198Z,40.79
2016-05-07T08:10:03.154Z,40.7
2016-05-07T08:11:03.157Z,40.43
2016-05-07T08:12:03.284Z,40.62
2016-05-07T08:13:03.209Z,40.23
2016-05-07T08:14:03.274Z,39.47
2016-05-07T08:15:03.308Z,39.28
2016-05-07T08:16:03.421Z,39.37
2016-05-07T08:17:03.282Z,39.37
2016-05-07T08:18:03.409Z,39.08
2016-05-07T08:19:03.569Z,39.56
2016-05-07T08:20:03.478Z,39.28
2016-05-07T08:21:03.637Z,39.56
2016-05-07T08:22:03.562Z,38.6
2016-05-07T08:23:03.752Z,38.89
2016-05-07T08:24:03.488Z,38.62
2016-05-07T08:25:03.710Z,38.32
2016-05-07T08:26:03.745Z,37.74
2016-05-07T08:27:03.841Z,37.76
2016-05-07T08:28:03.936Z,37.95
2016-05-07T08:29:03.773Z,38.24
2016-05-07T08:30:03.958Z,38.34
2016-05-07T08:31:04.068Z,38.62
2016-05-07T08:32:04.160Z,38.62
2016-05-07T08:33:04.237Z,38.43
2016-05-07T08:34:04.310Z,37.66
2016-05-07T08:35:04.422Z,37.66
2016-05-07T08:36:04.347Z,37.77
2016-05-07T08:37:04.568Z,36.91
2016-05-07T08:38:04.538Z,36.72
2016-05-07T08:39:04.446Z,36.24
2016-05-07T08:40:04.658Z,35.76
2016-05-07T08:41:04.697Z,35.76
2016-05-07T08:42:05.394Z,35.76
2016-05-07T08:43:04.792Z,35.28
2016-05-07T08:44:04.847Z,35.76
2016-05-07T08:45:04.727Z,36.05
2016-05-07T08:46:04.982Z,34.99
2016-05-07T08:47:04.986Z,34.41
2016-05-07T08:48:05.022Z,33.93
2016-05-07T08:49:05.074Z,33.74
2016-05-07T08:50:05.124Z,33.47
2016-05-07T08:51:05.159Z,33.75
2016-05-07T08:52:05.194Z,33.75
2016-05-07T08:53:05.291Z,33.37
2016-05-07T08:54:05.294Z,33.47
2016-05-07T08:55:05.328Z,33.28
2016-05-07T08:56:05.379Z,33.08
2016-05-07T08:57:06.007Z,32.03
2016-05-07T08:58:05.478Z,30.97
2016-05-07T08:59:05.513Z,31.06
2016-05-07T09:00:05.577Z,31.35
2016-05-07T09:01:05.611Z,31.64
2016-05-07T09:02:05.646Z,31.74
2016-05-07T09:03:05.570Z,31.35
2016-05-07T09:04:05.730Z,31.85
2016-05-07T09:05:05.779Z,31.74
2016-05-07T09:06:05.813Z,31.64
2016-05-07T09:07:05.737Z,31.37
2016-05-07T09:08:05.912Z,31.27
2016-05-07T09:09:05.962Z,31.08
2016-05-07T09:10:05.996Z,31.08
2016-05-07T09:11:06.029Z,30.98
2016-05-07T09:12:06.110Z,30.88
2016-05-07T09:13:06.143Z,30.6
2016-05-07T09:14:06.179Z,29.65
2016-05-07T09:15:06.212Z,29.55
2016-05-07T09:16:06.262Z,29.17
2016-05-07T09:17:06.139Z,28.69
2016-05-07T09:18:06.361Z,28.2
2016-05-07T09:19:06.395Z,28.02
2016-05-07T09:20:06.445Z,28.4
2016-05-07T09:21:06.509Z,28.3
2016-05-07T09:22:06.527Z,28.78
2016-05-07T09:23:06.562Z,28.97
2016-05-07T09:24:06.455Z,28.97
2016-05-07T09:25:06.661Z,28.59
2016-05-07T09:26:06.695Z,28.2
2016-05-07T09:27:06.588Z,28.4
2016-05-07T09:28:06.622Z,28.22
2016-05-07T09:29:06.828Z,28.2
2016-05-07T09:30:06.877Z,28.41
2016-05-07T09:31:06.911Z,27.83
2016-05-07T09:32:06.976Z,27.93
2016-05-07T09:33:07.010Z,27.83
2016-05-07T09:34:07.060Z,28.13
2016-05-07T09:35:07.110Z,28.13
2016-05-07T09:36:07.253Z,26.68
2016-05-07T09:37:07.083Z,27.16
2016-05-07T09:38:07.305Z,26.97
2016-05-07T09:39:07.323Z,27.16
2016-05-07T09:40:07.341Z,26.97
2016-05-07T09:41:07.376Z,27.06
2016-05-07T09:42:07.426Z,26.87
2016-05-07T09:43:07.537Z,26.4
2016-05-07T09:44:07.384Z,26.4
2016-05-07T09:45:07.621Z,26.11
2016-05-07T09:46:07.468Z,26.02
2016-05-07T09:47:07.657Z,26.79
2016-05-07T09:48:07.676Z,26.98
2016-05-07T09:49:07.709Z,26.02
2016-05-07T09:50:07.759Z,26.5
2016-05-07T09:51:07.809Z,26.31
2016-05-07T09:52:07.796Z,25.44
2016-05-07T09:53:07.939Z,25.82
2016-05-07T09:54:08.051Z,25.82
2016-05-07T09:55:08.006Z,25.34
2016-05-07T09:56:08.042Z,25.45
2016-05-07T09:57:08.794Z,25.16
2016-05-07T09:58:08.156Z,25.15
2016-05-07T09:59:08.205Z,25.44
2016-05-07T10:00:08.208Z,25.74
2016-05-07T10:01:08.117Z,25.93
2016-05-07T10:02:08.151Z,26.12
2016-05-07T10:03:08.450Z,24.87
2016-05-07T10:04:08.406Z,25.45
2016-05-07T10:05:08.472Z,25.35
2016-05-07T10:06:08.333Z,25.37
2016-05-07T10:07:08.524Z,25.66
2016-05-07T10:08:08.636Z,25.27
2016-05-07T10:09:08.716Z,25.85
2016-05-07T10:10:08.657Z,25.08
2016-05-07T10:11:08.707Z,25.86
2016-05-07T10:12:09.052Z,25.48
2016-05-07T10:13:08.868Z,25.57
2016-05-07T10:14:08.902Z,24.99
2016-05-07T10:15:08.748Z,24.32
2016-05-07T10:16:08.970Z,24.81
2016-05-07T10:17:09.035Z,24.72
2016-05-07T10:18:08.882Z,24.52
2016-05-07T10:19:09.103Z,24.52
2016-05-07T10:20:09.153Z,24.23
2016-05-07T10:21:09.202Z,23.38
2016-05-07T10:22:09.251Z,22.8
2016-05-07T10:23:09.160Z,22.89
2016-05-07T10:24:09.366Z,22.71
2016-05-07T10:25:09.417Z,22.91
2016-05-07T10:26:09.465Z,21.66
2016-05-07T10:27:09.796Z,21.48
2016-05-07T10:28:09.576Z,20.62
2016-05-07T10:29:09.625Z,19.85
2016-05-07T10:30:09.689Z,19.2
2016-05-07T10:31:09.740Z,18.43
2016-05-07T10:32:09.805Z,17.68
2016-05-07T10:33:09.714Z,17.31
2016-05-07T10:34:09.919Z,16.46
2016-05-07T10:35:09.970Z,15.11
2016-05-07T10:36:10.066Z,13.39
2016-05-07T10:37:10.099Z,12.42
2016-05-07T10:38:10.134Z,11.36
2016-05-07T10:39:10.183Z,10.59
2016-05-07T10:40:10.263Z,8.84
2016-05-07T10:41:10.157Z,8.45
2016-05-07T10:42:10.488Z,8.75
2016-05-07T10:43:10.428Z,9.06
2016-05-07T10:44:10.509Z,9.25
2016-05-07T10:45:10.527Z,9.54
2016-05-07T10:46:10.452Z,9.73
2016-05-07T10:47:10.657Z,9.14
2016-05-07T10:48:10.707Z,8.36
2016-05-07T10:49:10.773Z,8.47
2016-05-07T10:50:10.822Z,7.5
2016-05-07T10:51:10.887Z,6.81
2016-05-07T10:52:10.937Z,6.33
2016-05-07T10:53:11.002Z,5.65
2016-05-07T10:54:10.895Z,5.45
2016-05-07T10:55:11.117Z,5.05
2016-05-07T10:56:11.181Z,4.25
2016-05-07T10:57:11.263Z,4.35
2016-05-07T10:58:11.328Z,4.54
2016-05-07T10:59:11.345Z,4.93
2016-05-07T11:00:11.412Z,4.93
2016-05-07T11:01:11.336Z,5.23
2016-05-07T11:02:11.541Z,5.91
2016-05-07T11:03:11.591Z,6.49
2016-05-07T11:04:11.657Z,6.49
2016-05-07T11:05:11.722Z,6.48
2016-05-07T11:06:11.599Z,6.58
2016-05-07T11:07:11.822Z,6.59
2016-05-07T11:08:11.964Z,6.89
2016-05-07T11:09:11.951Z,6.31
2016-05-07T11:10:12.000Z,6.61
2016-05-07T11:11:12.082Z,6.12
2016-05-07T11:12:12.116Z,5.54
2016-05-07T11:13:12.165Z,4.85
2016-05-07T11:14:12.230Z,4.75
2016-05-07T11:15:12.343Z,4.46
2016-05-07T11:16:12.345Z,3.97
2016-05-07T11:17:12.410Z,3.38
2016-05-07T11:18:12.476Z,3.57
2016-05-07T11:19:12.541Z,3.37
2016-05-07T11:20:12.590Z,3.47
2016-05-07T11:21:12.640Z,3.57
2016-05-07T11:22:12.704Z,3.57
2016-05-07T11:23:12.770Z,3.17
2016-05-07T11:24:12.820Z,3.08
2016-05-07T11:25:12.885Z,3.08
2016-05-07T11:26:12.809Z,2.29
2016-05-07T11:27:13.015Z,1.99
2016-05-07T11:28:13.065Z,2.29
2016-05-07T11:29:13.130Z,2.58
2016-05-07T11:30:13.195Z,2.58
2016-05-07T11:31:13.261Z,3.38
2016-05-07T11:32:13.325Z,3.57
2016-05-07T11:33:13.376Z,4.25
2016-05-07T11:34:13.440Z,4.65
2016-05-07T11:35:13.490Z,3.86
2016-05-07T11:36:13.430Z,3.76
2016-05-07T11:37:13.447Z,4.06
2016-05-07T11:38:13.670Z,4.55
2016-05-07T11:39:13.735Z,4.55
2016-05-07T11:40:13.644Z,4.06
2016-05-07T11:41:13.865Z,4.16
2016-05-07T11:42:13.947Z,4.26
2016-05-07T11:43:13.839Z,4.66
2016-05-07T11:44:14.029Z,4.16
2016-05-07T11:45:14.095Z,4.27
2016-05-07T11:46:14.160Z,3.58
2016-05-07T11:47:14.210Z,3.47
2016-05-07T11:48:14.290Z,3.67
2016-05-07T11:49:14.387Z,3.57
2016-05-07T11:50:14.421Z,3.17
2016-05-07T11:51:14.471Z,2.98
2016-05-07T11:52:14.582Z,2.97
2016-05-07T11:53:14.601Z,2.97
2016-05-07T11:54:14.651Z,3.47
2016-05-07T11:55:14.700Z,3.76
2016-05-07T11:56:14.765Z,3.86
2016-05-07T11:57:15.970Z,4.64
2016-05-07T11:58:14.896Z,4.54
2016-05-07T11:59:15.007Z,5.52
2016-05-07T12:00:14.995Z,5.52
2016-05-07T12:01:15.059Z,6.59
2016-05-07T12:02:15.156Z,7.17
2016-05-07T12:03:15.190Z,7.76
2016-05-07T12:04:15.239Z,7.66
2016-05-07T12:05:15.289Z,8.15
2016-05-07T12:06:15.370Z,7.96
2016-05-07T12:07:15.404Z,8.06
2016-05-07T12:08:15.453Z,7.76
2016-05-07T12:09:15.566Z,7.96
2016-05-07T12:10:15.569Z,8.75
2016-05-07T12:11:15.618Z,8.06
2016-05-07T12:12:16.449Z,8.56
2016-05-07T12:13:15.749Z,8.37
2016-05-07T12:14:15.797Z,7.69
2016-05-07T12:15:15.879Z,6.71
2016-05-07T12:16:15.960Z,6.51
2016-05-07T12:17:15.805Z,5.92
2016-05-07T12:18:16.027Z,6.12
2016-05-07T12:19:16.108Z,6.6
2016-05-07T12:20:16.143Z,6.11
2016-05-07T12:21:16.191Z,6.6
2016-05-07T12:22:16.273Z,6.21
2016-05-07T12:23:16.354Z,6.31
2016-05-07T12:24:16.215Z,6.61
2016-05-07T12:25:16.421Z,5.63
2016-05-07T12:26:16.501Z,5.53
2016-05-07T12:27:16.412Z,5.04
2016-05-07T12:28:16.617Z,4.55
2016-05-07T12:29:16.651Z,5.04
2016-05-07T12:30:16.715Z,5.63
2016-05-07T12:31:16.781Z,5.73
2016-05-07T12:32:16.862Z,5.83
2016-05-07T12:33:16.942Z,5.14
2016-05-07T12:34:16.962Z,5.05
2016-05-07T12:35:17.010Z,4.36
2016-05-07T12:36:17.092Z,4.46
2016-05-07T12:37:17.141Z,3.97
2016-05-07T12:38:17.222Z,4.07
2016-05-07T12:39:17.255Z,3.47
2016-05-07T12:40:17.322Z,3.28
2016-05-07T12:41:17.214Z,3.17
2016-05-07T12:42:17.452Z,3.27
2016-05-07T12:43:17.344Z,3.37
2016-05-07T12:44:17.566Z,3.86
2016-05-07T12:45:17.631Z,4.35
2016-05-07T12:46:17.681Z,4.74
2016-05-07T12:47:17.746Z,4.94
2016-05-07T12:48:17.796Z,5.23
2016-05-07T12:49:17.877Z,5.72
2016-05-07T12:50:17.785Z,5.53
2016-05-07T12:51:17.976Z,5.33
2016-05-07T12:52:18.071Z,5.33
2016-05-07T12:53:18.121Z,4.75
2016-05-07T12:54:18.154Z,4.06
2016-05-07T12:55:18.205Z,3.67
2016-05-07T12:56:18.332Z,3.47
2016-05-07T12:57:18.335Z,3.58
2016-05-07T12:58:18.401Z,3.08
2016-05-07T12:59:18.326Z,2.69
2016-05-07T13:00:18.531Z,2.69